Time;durP1;ratioP1;P1;durP2;ratioP2;P2;SDS_P1;SDS_P2;PMS_P1;PMS_P2;Temp;Humidity;BMP_temperature;BMP_pressure;BME280_temperature;BME280_humidity;BME280_pressure;Samples;Min_cycle;Max_cycle;Signal;HPM_P1;HPM_P2
2022/04/06 00:01:17;;;;;;;14.60;4.85;;;10.60;99.90;;;;;;5062851;28;20069;-49
2022/04/06 00:03:45;;;;;;;16.02;3.85;;;10.60;99.90;;;;;;5068621;28;20087;-52
2022/04/06 00:06:10;;;;;;;17.08;5.05;;;10.70;99.90;;;;;;5067664;28;20031;-54
2022/04/06 00:08:36;;;;;;;14.23;4.10;;;10.70;99.90;;;;;;5068104;28;20025;-50
2022/04/06 00:11:02;;;;;;;18.70;6.30;;;10.70;99.90;;;;;;5068631;28;20029;-56
2022/04/06 00:13:29;;;;;;;20.33;4.97;;;10.60;99.90;;;;;;5068567;28;20059;-52
2022/04/06 00:15:55;;;;;;;16.20;4.45;;;10.60;99.90;;;;;;5066002;28;20032;-53
2022/04/06 00:18:20;;;;;;;10.63;3.95;;;10.60;99.90;;;;;;5067562;28;20528;-55
2022/04/06 00:20:46;;;;;;;15.35;3.80;;;10.60;99.90;;;;;;5065565;28;20024;-51
2022/04/06 00:23:12;;;;;;;20.55;4.03;;;10.60;99.90;;;;;;5067979;28;20060;-49
2022/04/06 00:25:37;;;;;;;15.52;4.55;;;10.60;99.90;;;;;;5068130;28;20071;-53
2022/04/06 00:28:03;;;;;;;18.77;5.45;;;10.50;99.90;;;;;;5066355;28;20028;-57
2022/04/06 00:30:29;;;;;;;15.82;3.75;;;10.50;99.90;;;;;;5068490;28;20032;-56
2022/04/06 00:32:54;;;;;;;17.63;3.38;;;10.50;99.90;;;;;;5048027;28;20553;-49
2022/04/06 00:35:29;;;;;;;8.73;3.05;;;10.50;99.90;;;;;;5065549;28;20035;-57
2022/04/06 00:38:04;;;;;;;;;;;10.50;99.90;;;;;;5060842;28;20482;-51
2022/04/06 00:40:30;;;;;;;;;;;10.50;99.90;;;;;;5108961;22;19923;-64
2022/04/06 00:42:55;;;;;;;19.05;3.70;;;10.50;99.90;;;;;;5105418;28;20006;-62
2022/04/06 00:45:23;;;;;;;8.70;3.35;;;10.50;99.90;;;;;;5104584;28;20098;-64
2022/04/06 00:47:50;;;;;;;14.27;4.05;;;10.50;99.90;;;;;;5108985;28;20036;-64
2022/04/06 00:50:17;;;;;;;8.90;2.70;;;10.50;99.90;;;;;;5100938;28;20024;-63
2022/04/06 00:52:43;;;;;;;13.52;3.50;;;10.50;99.90;;;;;;5091190;28;20501;-62
2022/04/06 00:55:10;;;;;;;19.48;3.30;;;10.50;99.90;;;;;;5079018;28;20351;-62
2022/04/06 00:57:35;;;;;;;12.35;3.45;;;10.50;99.90;;;;;;5083865;28;20058;-63
2022/04/06 01:00:02;;;;;;;15.45;4.55;;;10.50;99.90;;;;;;5069485;28;20056;-64
2022/04/06 01:02:28;;;;;;;11.68;3.78;;;10.50;99.90;;;;;;5076353;28;20052;-63
2022/04/06 01:04:53;;;;;;;12.30;3.22;;;10.40;99.90;;;;;;5086979;28;20064;-62
2022/04/06 01:07:20;;;;;;;12.43;2.95;;;10.40;99.90;;;;;;5070575;28;20027;-64
2022/04/06 01:09:46;;;;;;;11.48;3.38;;;10.40;99.90;;;;;;5081025;28;20028;-63
2022/04/06 01:12:13;;;;;;;9.32;3.30;;;10.40;99.90;;;;;;5084892;28;20038;-65
2022/04/06 01:14:39;;;;;;;14.68;3.85;;;10.40;99.90;;;;;;5070434;28;20089;-64
2022/04/06 01:17:07;;;;;;;10.02;3.50;;;10.40;99.90;;;;;;5079892;28;20044;-64
2022/04/06 01:19:40;;;;;;;13.43;2.75;;;10.40;99.90;;;;;;5080502;28;20032;-64
2022/04/06 01:22:07;;;;;;;13.77;3.25;;;10.40;99.90;;;;;;5078508;28;20029;-64
2022/04/06 01:24:34;;;;;;;16.52;3.15;;;10.40;99.90;;;;;;5088022;28;20449;-63
2022/04/06 01:27:01;;;;;;;13.02;2.92;;;10.40;99.90;;;;;;5086071;28;20052;-62
2022/04/06 01:29:27;;;;;;;15.63;3.60;;;10.40;99.90;;;;;;5090605;28;20090;-64
2022/04/06 01:31:53;;;;;;;12.05;3.20;;;10.40;99.90;;;;;;5075239;28;20087;-63
2022/04/06 01:34:18;;;;;;;15.55;3.30;;;10.30;99.90;;;;;;5091649;28;20040;-65
2022/04/06 01:36:44;;;;;;;8.43;3.28;;;10.30;99.90;;;;;;5083538;28;20040;-64
2022/04/06 01:39:10;;;;;;;10.45;2.83;;;10.30;99.90;;;;;;5090787;28;20062;-64
2022/04/06 01:41:37;;;;;;;6.53;2.60;;;10.30;99.90;;;;;;5087131;28;20032;-65
2022/04/06 01:44:06;;;;;;;9.88;3.40;;;10.30;99.90;;;;;;5092703;28;20032;-65
2022/04/06 01:46:33;;;;;;;13.57;3.28;;;10.30;99.90;;;;;;5090619;28;20412;-64
2022/04/06 01:54:28;;;;;;;15.98;3.90;;;10.20;99.90;;;;;;5088134;28;20039;-63
2022/04/06 01:56:54;;;;;;;14.93;3.33;;;10.20;99.90;;;;;;5079122;28;20104;-62
2022/04/06 01:59:20;;;;;;;10.88;3.90;;;10.30;99.90;;;;;;5083964;28;20024;-63
2022/04/06 02:01:50;;;;;;;11.18;3.58;;;10.30;99.90;;;;;;5094614;28;20028;-64
2022/04/06 02:04:16;;;;;;;9.80;3.60;;;10.30;99.90;;;;;;5074894;28;20404;-64
2022/04/06 02:06:42;;;;;;;14.65;4.68;;;10.20;99.90;;;;;;5077757;28;20032;-63
2022/04/06 02:09:08;;;;;;;12.27;4.68;;;10.30;99.90;;;;;;5087710;28;20028;-64
2022/04/06 02:11:35;;;;;;;12.63;4.63;;;10.30;99.90;;;;;;5094984;28;20049;-64
2022/04/06 02:14:03;;;;;;;12.95;4.30;;;10.30;99.90;;;;;;5075491;28;20449;-64
2022/04/06 02:16:28;;;;;;;13.68;4.35;;;10.30;99.90;;;;;;5095159;27;20038;-65
2022/04/06 02:18:54;;;;;;;14.82;5.05;;;10.30;99.90;;;;;;5077882;28;20123;-64
2022/04/06 02:21:20;;;;;;;16.00;4.05;;;10.20;99.90;;;;;;5092255;28;20062;-64
2022/04/06 02:23:46;;;;;;;19.10;4.40;;;10.20;99.90;;;;;;5081317;28;20580;-65
2022/04/06 02:26:11;;;;;;;18.55;4.70;;;10.20;99.90;;;;;;5073379;28;20115;-64
2022/04/06 02:28:37;;;;;;;13.20;4.40;;;10.20;99.90;;;;;;5081999;28;20028;-64
2022/04/06 02:31:02;;;;;;;20.52;5.20;;;10.20;99.90;;;;;;5089684;28;20059;-64
2022/04/06 02:33:28;;;;;;;19.52;4.38;;;10.20;99.90;;;;;;5078309;28;20054;-65
2022/04/06 02:35:53;;;;;;;16.02;4.72;;;10.20;99.90;;;;;;5085206;28;20036;-64
2022/04/06 02:38:19;;;;;;;17.42;4.05;;;10.20;99.90;;;;;;5084967;28;20032;-63
2022/04/06 02:40:46;;;;;;;17.75;4.47;;;10.20;99.90;;;;;;5081390;28;20039;-63
2022/04/06 02:43:12;;;;;;;9.82;4.68;;;10.20;99.90;;;;;;5090994;28;20023;-64
2022/04/06 02:45:37;;;;;;;15.48;4.72;;;10.20;99.90;;;;;;5079332;27;20020;-64
2022/04/06 02:48:03;;;;;;;14.25;4.80;;;10.20;99.90;;;;;;5078148;28;20489;-65
2022/04/06 02:50:29;;;;;;;15.15;5.15;;;10.20;99.90;;;;;;5093615;28;20555;-64
2022/04/06 02:52:54;;;;;;;11.18;5.57;;;10.20;99.90;;;;;;5084404;28;20119;-65
2022/04/06 02:55:20;;;;;;;17.98;5.18;;;10.20;99.90;;;;;;5090472;28;20043;-65
2022/04/06 02:57:45;;;;;;;16.95;4.43;;;10.20;99.90;;;;;;5084824;28;20394;-64
2022/04/06 03:00:13;;;;;;;8.65;4.28;;;10.20;99.90;;;;;;5084594;28;20111;-63
2022/04/06 03:02:38;;;;;;;14.10;5.28;;;10.20;99.90;;;;;;5089563;28;20039;-65
2022/04/06 03:05:04;;;;;;;13.30;3.83;;;10.20;99.90;;;;;;5084300;28;20103;-64
2022/04/06 03:07:30;;;;;;;9.73;3.80;;;10.20;99.90;;;;;;5084362;28;20062;-64
2022/04/06 03:09:55;;;;;;;14.00;4.20;;;10.20;99.90;;;;;;5083847;28;20032;-64
2022/04/06 03:12:21;;;;;;;17.67;4.80;;;10.10;99.90;;;;;;5084301;28;20426;-64
2022/04/06 03:14:46;;;;;;;13.02;3.25;;;10.10;99.90;;;;;;5086129;28;20032;-65
2022/04/06 03:17:15;;;;;;;14.32;4.20;;;10.20;99.90;;;;;;5094204;28;20106;-65
2022/04/06 03:19:42;;;;;;;12.07;4.38;;;10.10;99.90;;;;;;5086094;28;20398;-63
2022/04/06 03:22:08;;;;;;;14.80;4.93;;;10.10;99.90;;;;;;5089577;28;20055;-63
2022/04/06 03:24:33;;;;;;;11.88;3.25;;;10.20;99.90;;;;;;5076099;28;20056;-64
2022/04/06 03:26:59;;;;;;;12.18;3.70;;;10.20;99.90;;;;;;5094191;28;20031;-64
2022/04/06 03:29:25;;;;;;;12.38;3.97;;;10.10;99.90;;;;;;5079454;28;20020;-63
2022/04/06 03:31:51;;;;;;;13.25;4.03;;;10.10;99.90;;;;;;5080768;28;20124;-63
2022/04/06 03:34:16;;;;;;;13.18;3.88;;;10.10;99.90;;;;;;5078912;28;20052;-63
2022/04/06 03:36:42;;;;;;;17.58;4.95;;;10.10;99.90;;;;;;5089069;28;20035;-63
2022/04/06 03:39:07;;;;;;;12.93;4.40;;;10.10;99.90;;;;;;5095490;28;20032;-62
2022/04/06 03:41:33;;;;;;;15.15;3.75;;;10.10;99.90;;;;;;5091595;28;20032;-63
2022/04/06 03:43:58;;;;;;;13.60;3.75;;;10.10;99.90;;;;;;5094777;28;20082;-65
2022/04/06 03:46:24;;;;;;;16.35;4.25;;;10.10;99.90;;;;;;5086425;28;20097;-63
2022/04/06 03:48:49;;;;;;;17.83;4.72;;;10.00;99.90;;;;;;5086650;28;20028;-64
2022/04/06 03:51:15;;;;;;;12.27;3.70;;;10.00;99.90;;;;;;5096128;28;20033;-64
2022/04/06 03:53:40;;;;;;;12.45;4.53;;;10.10;99.90;;;;;;5085131;28;20468;-62
2022/04/06 03:56:06;;;;;;;14.15;3.95;;;10.10;99.90;;;;;;5079030;28;20028;-63
2022/04/06 03:58:31;;;;;;;6.93;2.80;;;10.10;99.90;;;;;;5090486;28;20028;-64
2022/04/06 04:00:57;;;;;;;11.45;3.60;;;10.10;99.90;;;;;;5079173;28;20020;-62
2022/04/06 04:03:22;;;;;;;10.82;2.50;;;10.10;99.90;;;;;;5075350;28;20478;-64
2022/04/06 04:05:48;;;;;;;11.43;3.38;;;10.10;99.90;;;;;;5081588;28;20540;-62
2022/04/06 04:08:13;;;;;;;13.65;3.40;;;10.10;99.90;;;;;;5084110;28;20033;-63
2022/04/06 04:10:39;;;;;;;10.15;3.40;;;10.10;99.90;;;;;;5083877;28;20036;-62
2022/04/06 04:13:05;;;;;;;18.20;3.70;;;10.10;99.90;;;;;;5082561;28;20024;-64
2022/04/06 04:15:31;;;;;;;9.85;2.92;;;10.20;99.90;;;;;;5082330;28;20034;-64
2022/04/06 04:17:57;;;;;;;14.50;4.22;;;10.20;99.90;;;;;;5098510;28;20082;-63
2022/04/06 04:20:23;;;;;;;10.35;3.13;;;10.20;99.90;;;;;;5095776;28;20111;-63
2022/04/06 04:22:48;;;;;;;14.52;3.35;;;10.20;99.90;;;;;;5085265;28;20107;-61
2022/04/06 04:25:14;;;;;;;11.00;3.42;;;10.10;99.90;;;;;;5086806;28;20028;-65
2022/04/06 04:27:40;;;;;;;12.80;3.70;;;10.20;99.90;;;;;;5088899;28;20020;-64
2022/04/06 04:30:06;;;;;;;11.20;3.05;;;10.10;99.90;;;;;;5089673;28;20042;-64
2022/04/06 04:32:32;;;;;;;11.52;2.80;;;10.10;99.90;;;;;;5083172;28;20392;-65
2022/04/06 04:35:00;;;;;;;8.50;3.13;;;10.10;99.90;;;;;;5080975;28;20032;-64
2022/04/06 04:37:25;;;;;;;9.98;2.80;;;10.10;99.90;;;;;;5087411;28;20028;-63
2022/04/06 04:39:51;;;;;;;12.15;3.78;;;10.10;99.90;;;;;;5086516;28;20481;-64
2022/04/06 04:42:17;;;;;;;9.32;3.13;;;10.10;99.90;;;;;;5081490;28;20033;-64
2022/04/06 04:44:42;;;;;;;7.05;3.00;;;10.10;99.90;;;;;;5078388;28;20046;-64
2022/04/06 04:47:08;;;;;;;10.73;3.22;;;10.10;99.90;;;;;;5085467;28;20063;-64
2022/04/06 04:49:34;;;;;;;9.82;3.30;;;10.10;99.90;;;;;;5088113;28;20056;-59
2022/04/06 04:51:59;;;;;;;19.45;3.70;;;10.10;99.90;;;;;;5084233;28;20031;-59
2022/04/06 04:54:26;;;;;;;16.77;4.00;;;10.10;99.90;;;;;;5085079;28;20031;-60
2022/04/06 04:56:52;;;;;;;11.02;3.15;;;10.10;99.90;;;;;;5084721;28;20029;-57
2022/04/06 04:59:18;;;;;;;15.80;3.65;;;10.10;99.90;;;;;;5091504;28;20103;-59
2022/04/06 05:01:44;;;;;;;13.40;3.92;;;10.10;99.90;;;;;;5078055;28;20119;-58
2022/04/06 05:04:09;;;;;;;14.95;3.95;;;10.10;99.90;;;;;;5083974;28;20033;-59
2022/04/06 05:06:37;;;;;;;14.52;4.03;;;10.10;99.90;;;;;;5084500;28;20077;-59
2022/04/06 05:09:03;;;;;;;15.27;5.05;;;10.10;99.90;;;;;;5088703;28;20044;-58
2022/04/06 05:11:28;;;;;;;17.15;4.65;;;10.10;99.90;;;;;;5085827;28;20031;-57
2022/04/06 05:13:54;;;;;;;14.98;4.68;;;10.10;99.90;;;;;;5092535;28;20081;-58
2022/04/06 05:16:19;;;;;;;9.13;3.28;;;10.10;99.90;;;;;;5088447;28;20426;-59
2022/04/06 05:18:45;;;;;;;18.23;4.03;;;10.10;99.90;;;;;;5095180;28;20056;-58
2022/04/06 05:21:11;;;;;;;17.48;3.30;;;10.10;99.90;;;;;;5090312;28;20122;-59
2022/04/06 05:23:36;;;;;;;11.73;3.42;;;10.20;99.90;;;;;;5083325;28;20085;-57
2022/04/06 05:26:02;;;;;;;11.60;3.58;;;10.20;99.90;;;;;;5085086;28;20027;-57
2022/04/06 05:28:28;;;;;;;9.35;2.72;;;10.20;99.90;;;;;;5085436;28;20082;-57
2022/04/06 05:30:54;;;;;;;12.32;3.25;;;10.10;99.90;;;;;;5075407;28;20040;-59
2022/04/06 05:33:19;;;;;;;11.18;3.47;;;10.10;99.90;;;;;;5088395;28;20338;-57
2022/04/06 05:35:45;;;;;;;13.90;3.53;;;10.20;99.90;;;;;;5075593;28;20032;-58
2022/04/06 05:38:11;;;;;;;10.10;2.92;;;10.20;99.90;;;;;;5080271;28;20032;-58
2022/04/06 05:40:37;;;;;;;21.27;3.33;;;10.20;99.90;;;;;;5082609;28;20024;-59
2022/04/06 05:43:03;;;;;;;11.10;3.00;;;10.20;99.90;;;;;;5082730;28;20028;-59
2022/04/06 05:45:28;;;;;;;9.05;3.05;;;10.20;99.90;;;;;;5081171;28;20035;-59
2022/04/06 05:47:54;;;;;;;10.95;3.03;;;10.20;99.90;;;;;;5077512;28;20058;-59
2022/04/06 05:50:19;;;;;;;7.20;2.72;;;10.20;99.90;;;;;;5080211;28;20020;-59
2022/04/06 05:52:45;;;;;;;10.73;2.67;;;10.20;99.90;;;;;;5092617;28;20035;-59
2022/04/06 05:55:11;;;;;;;11.60;2.38;;;10.20;99.90;;;;;;5082595;28;20049;-58
2022/04/06 05:57:37;;;;;;;8.90;2.78;;;10.10;99.90;;;;;;5089014;28;20477;-56
2022/04/06 06:00:07;;;;;;;9.82;2.53;;;10.20;99.90;;;;;;5091123;28;20107;-59
2022/04/06 06:02:34;;;;;;;14.00;2.90;;;10.20;99.90;;;;;;5079005;28;20020;-59
2022/04/06 06:04:59;;;;;;;7.72;2.33;;;10.20;99.90;;;;;;5083582;28;20104;-59
2022/04/06 06:07:25;;;;;;;10.77;2.65;;;10.20;99.90;;;;;;5086800;28;20103;-59
2022/04/06 06:09:50;;;;;;;14.07;2.95;;;10.20;99.90;;;;;;5075673;28;20020;-56
2022/04/06 06:12:16;;;;;;;10.10;2.42;;;10.30;99.90;;;;;;5086370;28;20119;-59
2022/04/06 06:14:41;;;;;;;7.85;2.38;;;10.30;99.90;;;;;;5086279;28;20024;-59
2022/04/06 06:17:07;;;;;;;7.40;2.47;;;10.30;99.90;;;;;;5081194;28;20024;-59
2022/04/06 06:19:33;;;;;;;17.45;2.67;;;10.30;99.90;;;;;;5080772;28;20401;-59
2022/04/06 06:21:59;;;;;;;10.95;2.47;;;10.30;99.90;;;;;;5075898;28;20421;-59
2022/04/06 06:24:25;;;;;;;7.35;2.10;;;10.30;99.90;;;;;;5080638;28;20020;-58
2022/04/06 06:26:52;;;;;;;13.02;2.63;;;10.40;99.90;;;;;;5076700;28;20031;-59
2022/04/06 06:29:17;;;;;;;9.10;2.42;;;10.30;99.90;;;;;;5076036;28;20070;-59
2022/04/06 06:31:43;;;;;;;8.00;2.35;;;10.40;99.90;;;;;;5078819;28;20091;-59
2022/04/06 06:34:08;;;;;;;10.82;2.47;;;10.40;99.90;;;;;;5072974;28;20127;-59
2022/04/06 06:36:34;;;;;;;14.18;3.67;;;10.40;99.90;;;;;;5072222;28;20056;-59
2022/04/06 06:39:01;;;;;;;12.63;2.67;;;10.40;99.90;;;;;;5080004;28;20103;-58
2022/04/06 06:41:27;;;;;;;9.83;2.40;;;10.40;99.90;;;;;;5086296;22;20042;-59
2022/04/06 06:43:53;;;;;;;8.30;2.10;;;10.40;99.90;;;;;;5080987;28;20316;-58
2022/04/06 06:46:20;;;;;;;7.72;3.00;;;10.40;99.90;;;;;;5087623;28;20097;-57
2022/04/06 06:48:46;;;;;;;8.57;2.00;;;10.40;99.90;;;;;;5084001;28;20020;-55
2022/04/06 06:51:13;;;;;;;9.02;2.08;;;10.50;99.90;;;;;;5086559;28;20032;-55
2022/04/06 06:53:39;;;;;;;7.18;2.05;;;10.50;99.90;;;;;;5090378;28;20569;-56
2022/04/06 06:56:05;;;;;;;12.60;1.95;;;10.50;99.90;;;;;;5088378;28;20615;-58
2022/04/06 06:58:30;;;;;;;5.88;1.90;;;10.50;99.90;;;;;;5090065;28;20077;-55
2022/04/06 07:00:56;;;;;;;8.23;1.48;;;10.50;99.90;;;;;;5083685;28;20481;-55
2022/04/06 07:03:22;;;;;;;7.90;1.83;;;10.50;99.90;;;;;;5085918;28;20025;-59
2022/04/06 07:05:48;;;;;;;9.68;1.63;;;10.60;99.90;;;;;;5079019;28;20040;-57
2022/04/06 07:08:14;;;;;;;5.03;1.52;;;10.50;99.90;;;;;;5088308;28;20036;-51
2022/04/06 07:10:44;;;;;;;5.65;1.50;;;10.60;99.90;;;;;;5083394;28;20095;-53
2022/04/06 07:13:12;;;;;;;7.50;1.92;;;10.60;99.90;;;;;;5081173;28;20024;-54
2022/04/06 07:15:39;;;;;;;6.78;1.85;;;10.60;99.90;;;;;;5084864;28;20516;-52
2022/04/06 07:18:06;;;;;;;7.55;1.67;;;10.70;99.90;;;;;;5089564;28;20032;-57
2022/04/06 07:20:31;;;;;;;3.40;1.35;;;10.70;99.90;;;;;;5085923;28;20016;-52
2022/04/06 07:22:57;;;;;;;11.80;2.70;;;10.70;99.90;;;;;;5089581;28;20025;-55
2022/04/06 07:25:23;;;;;;;5.40;1.35;;;10.80;99.90;;;;;;5083068;28;20055;-55
2022/04/06 07:27:49;;;;;;;14.98;1.33;;;10.80;99.90;;;;;;5088911;28;20034;-52
2022/04/06 07:30:15;;;;;;;4.43;1.13;;;10.80;99.90;;;;;;5082530;28;20024;-55
2022/04/06 07:32:40;;;;;;;5.13;1.60;;;10.80;99.90;;;;;;5086347;28;20070;-53
2022/04/06 07:35:07;;;;;;;3.95;1.10;;;10.80;99.90;;;;;;5089957;28;20063;-56
2022/04/06 07:37:47;;;;;;;7.90;1.88;;;10.80;99.90;;;;;;5077251;28;20031;-56
2022/04/06 07:54:53;;;;;;;5.63;1.30;;;10.60;99.90;;;;;;5110381;27;20450;-58
2022/04/06 07:57:27;;;;;;;3.25;1.33;;;10.50;99.90;;;;;;5098044;28;21691;-58
2022/04/06 07:59:54;;;;;;;6.30;1.55;;;10.50;99.90;;;;;;5101766;28;20077;-58
2022/04/06 08:02:20;;;;;;;5.47;1.35;;;10.60;99.90;;;;;;5076537;22;20076;-57
2022/04/06 08:04:45;;;;;;;5.75;1.20;;;10.60;99.90;;;;;;5046311;28;20095;-53
2022/04/06 08:07:12;;;;;;;7.10;1.27;;;10.50;99.90;;;;;;5027931;28;20049;-56
2022/04/06 08:09:38;;;;;;;3.15;1.17;;;10.50;99.90;;;;;;5046368;28;20041;-54
2022/04/06 08:12:04;;;;;;;4.93;1.20;;;10.50;99.90;;;;;;5050156;28;20536;-57
2022/04/06 08:14:29;;;;;;;5.05;1.70;;;10.50;99.90;;;;;;5046090;28;20029;-56
2022/04/06 08:16:56;;;;;;;2.13;1.15;;;10.50;99.90;;;;;;5045813;28;20028;-56
2022/04/06 08:19:23;;;;;;;9.40;1.52;;;10.50;99.90;;;;;;5045167;28;20025;-56
2022/04/06 08:21:53;;;;;;;7.90;1.90;;;10.50;99.90;;;;;;5038737;28;20018;-57
2022/04/06 08:24:19;;;;;;;5.22;1.92;;;10.50;99.90;;;;;;5042395;28;20037;-55
2022/04/06 08:26:44;;;;;;;5.80;1.65;;;10.50;99.90;;;;;;5042473;28;20446;-57
2022/04/06 08:29:10;;;;;;;8.68;1.85;;;10.50;99.90;;;;;;5044179;28;20022;-57
2022/04/06 08:31:36;;;;;;;7.40;1.40;;;10.40;99.90;;;;;;5042473;28;20023;-56
2022/04/06 08:34:04;;;;;;;11.35;2.05;;;10.50;99.90;;;;;;5045515;28;20021;-53
2022/04/06 08:36:29;;;;;;;4.70;1.60;;;10.50;99.90;;;;;;5044475;28;20029;-51
2022/04/06 08:38:55;;;;;;;7.88;1.70;;;10.50;99.90;;;;;;5028305;28;20037;-53
2022/04/06 08:41:26;;;;;;;8.93;1.98;;;10.40;99.90;;;;;;5048518;28;20033;-56
2022/04/06 08:43:53;;;;;;;10.05;1.90;;;10.50;99.90;;;;;;5042584;28;20033;-54
2022/04/06 08:46:20;;;;;;;15.48;2.03;;;10.50;99.90;;;;;;5050113;28;20017;-58
2022/04/06 08:48:51;;;;;;;4.15;1.63;;;10.50;99.90;;;;;;5044756;28;20492;-56
2022/04/06 08:51:18;;;;;;;14.50;1.90;;;10.50;99.90;;;;;;5044382;28;20120;-55
2022/04/06 08:53:45;;;;;;;3.47;1.23;;;10.60;99.90;;;;;;5044284;28;20024;-56
2022/04/06 08:56:14;;;;;;;3.60;1.55;;;10.50;99.90;;;;;;5032682;28;20025;-52
2022/04/06 08:58:40;;;;;;;11.15;1.83;;;10.60;99.90;;;;;;5032796;28;20101;-53
2022/04/06 09:01:07;;;;;;;7.68;1.60;;;10.60;99.90;;;;;;5036716;28;20029;-56
2022/04/06 09:03:34;;;;;;;5.75;1.90;;;10.60;99.90;;;;;;5031162;28;20025;-56
2022/04/06 09:06:05;;;;;;;10.55;1.50;;;10.60;99.90;;;;;;5032792;28;20025;-52
2022/04/06 09:08:43;;;;;;;8.02;1.67;;;10.60;99.90;;;;;;5030915;28;20593;-54
2022/04/06 09:11:20;;;;;;;7.20;1.48;;;10.60;99.90;;;;;;5029716;28;20017;-53
2022/04/06 09:13:48;;;;;;;7.15;1.40;;;10.60;99.90;;;;;;5029668;28;20660;-52
2022/04/06 09:16:16;;;;;;;6.88;1.45;;;10.60;99.90;;;;;;5032322;28;20029;-55
2022/04/06 09:18:48;;;;;;;5.53;1.20;;;10.60;99.90;;;;;;5034915;28;20025;-54
2022/04/06 09:21:18;;;;;;;6.90;1.45;;;10.60;99.90;;;;;;5025920;28;20029;-56
2022/04/06 09:23:48;;;;;;;6.47;2.65;;;10.60;99.90;;;;;;5028976;28;20544;-55
2022/04/06 09:26:22;;;;;;;9.35;2.25;;;10.70;99.90;;;;;;5030893;28;20021;-55
2022/04/06 09:28:49;;;;;;;6.93;1.50;;;10.70;99.90;;;;;;5030638;28;20055;-53
2022/04/06 09:31:19;;;;;;;10.35;2.20;;;10.80;99.90;;;;;;5032326;28;20542;-53
2022/04/06 09:34:14;;;;;;;5.40;1.73;;;10.80;99.90;;;;;;5031394;28;20518;-51
2022/04/06 09:36:39;;;;;;;6.22;1.67;;;10.90;99.90;;;;;;5002245;28;20094;-54
2022/04/06 09:39:07;;;;;;;8.30;1.80;;;11.00;99.90;;;;;;5030923;28;20041;-55
2022/04/06 09:41:33;;;;;;;9.07;2.10;;;11.00;99.90;;;;;;5031648;28;20025;-52
2022/04/06 09:47:38;;;;;;;5.13;1.55;;;11.10;99.90;;;;;;5033225;28;20026;-57
2022/04/06 09:50:11;;;;;;;6.05;1.58;;;11.20;99.90;;;;;;5033019;28;20060;-55
2022/04/06 09:52:37;;;;;;;4.75;1.27;;;11.20;99.90;;;;;;5026087;28;20095;-55
2022/04/06 09:55:07;;;;;;;7.93;1.35;;;11.30;99.90;;;;;;5030372;28;20037;-51
2022/04/06 09:57:39;;;;;;;9.30;1.75;;;11.30;99.90;;;;;;5024770;28;20034;-52
2022/04/06 10:00:05;;;;;;;6.40;1.50;;;11.40;99.90;;;;;;5028583;28;20341;-55
2022/04/06 10:02:34;;;;;;;2.97;1.30;;;11.40;99.90;;;;;;5030953;28;20574;-55
2022/04/06 10:05:03;;;;;;;4.60;1.50;;;11.50;99.90;;;;;;5029468;28;20038;-55
2022/04/06 10:07:29;;;;;;;7.40;1.27;;;11.70;99.90;;;;;;5029716;28;20025;-56
2022/04/06 10:09:56;;;;;;;3.70;1.25;;;11.60;99.90;;;;;;5033897;28;20021;-55
2022/04/06 10:12:23;;;;;;;5.78;1.65;;;11.70;99.90;;;;;;5014855;28;20057;-57
2022/04/06 10:14:50;;;;;;;6.97;1.00;;;11.60;99.90;;;;;;5030269;28;20029;-53
2022/04/06 10:17:16;;;;;;;3.33;1.67;;;11.70;99.90;;;;;;5015588;28;20036;-56
2022/04/06 10:19:48;;;;;;;7.97;1.40;;;11.70;99.90;;;;;;5029862;28;20515;-55
2022/04/06 10:22:38;;;;;;;6.35;1.15;;;11.80;99.90;;;;;;5029312;28;20443;-56
2022/04/06 10:25:49;;;;;;;5.25;1.55;;;11.60;99.90;;;;;;5029754;28;20578;-55
2022/04/06 10:28:16;;;;;;;5.53;1.42;;;11.70;99.90;;;;;;4998923;28;20048;-55
2022/04/06 10:31:15;;;;;;;4.93;1.27;;;12.00;99.90;;;;;;5029975;28;20053;-55
2022/04/06 10:33:40;;;;;;;6.68;1.63;;;12.10;99.90;;;;;;5029838;28;20304;-59
2022/04/06 10:36:17;;;;;;;9.57;1.30;;;12.10;99.90;;;;;;5013835;28;20487;-58
2022/04/06 10:39:05;;;;;;;6.28;1.40;;;12.10;99.90;;;;;;5030483;28;20021;-56
2022/04/06 10:41:31;;;;;;;5.85;1.33;;;12.10;99.90;;;;;;5030485;28;20536;-58
2022/04/06 10:43:57;;;;;;;5.15;1.30;;;12.00;99.90;;;;;;5030456;28;20076;-55
2022/04/06 10:46:35;;;;;;;3.72;1.00;;;11.90;99.90;;;;;;5029423;28;20136;-57
2022/04/06 10:49:06;;;;;;;5.72;1.00;;;11.80;99.90;;;;;;5028918;28;20082;-56
2022/04/06 10:51:34;;;;;;;6.07;1.67;;;11.90;99.90;;;;;;5028931;28;20088;-53
2022/04/06 10:54:12;;;;;;;7.97;1.48;;;12.00;99.90;;;;;;5028849;28;20028;-58
2022/04/06 10:56:49;;;;;;;6.18;1.45;;;12.00;99.90;;;;;;5027215;28;20157;-52
2022/04/06 10:59:20;;;;;;;4.43;1.30;;;11.90;99.90;;;;;;5012688;28;20447;-53
2022/04/06 11:01:48;;;;;;;4.03;1.20;;;11.90;99.90;;;;;;5026467;28;20091;-54
2022/04/06 11:04:24;;;;;;;8.88;1.00;;;12.00;99.90;;;;;;5025718;28;20440;-55
2022/04/06 11:06:56;;;;;;;3.88;0.90;;;12.00;99.90;;;;;;5028146;28;20391;-55
2022/04/06 11:12:29;;;;;;;7.40;0.98;;;12.10;99.90;;;;;;5032609;28;20048;-57
2022/04/06 11:14:57;;;;;;;6.78;1.17;;;12.10;99.90;;;;;;5015637;28;20036;-53
2022/04/06 11:17:33;;;;;;;2.38;0.75;;;12.10;99.90;;;;;;5029078;28;20080;-55
2022/04/06 11:20:00;;;;;;;2.58;0.90;;;12.10;99.90;;;;;;5026387;28;20067;-58
2022/04/06 11:22:26;;;;;;;2.47;1.55;;;12.20;99.90;;;;;;5032013;28;20058;-57
2022/04/06 11:24:54;;;;;;;5.88;1.00;;;12.10;99.90;;;;;;5008386;28;20025;-59
2022/04/06 11:27:34;;;;;;;2.75;0.90;;;12.00;99.90;;;;;;5025748;28;20098;-57
2022/04/06 11:30:01;;;;;;;4.50;0.70;;;12.10;99.90;;;;;;5028100;28;20087;-57
2022/04/06 11:32:27;;;;;;;6.53;0.90;;;12.10;99.90;;;;;;5012277;28;20025;-54
2022/04/06 11:34:59;;;;;;;3.47;1.42;;;12.10;99.90;;;;;;5028285;28;20037;-54
2022/04/06 11:37:25;;;;;;;2.55;0.90;;;12.10;99.90;;;;;;5028438;28;20033;-54
2022/04/06 11:39:58;;;;;;;5.18;1.20;;;12.20;99.90;;;;;;5033323;28;20135;-54
2022/04/06 11:42:24;;;;;;;2.20;0.83;;;12.30;99.90;;;;;;5029292;28;20021;-53
2022/04/06 11:44:50;;;;;;;7.35;1.23;;;12.30;99.90;;;;;;5025497;28;20279;-53
2022/04/06 11:47:25;;;;;;;7.60;1.10;;;12.30;99.90;;;;;;5023224;28;20385;-54
2022/04/06 11:49:51;;;;;;;3.22;1.10;;;12.30;99.90;;;;;;5026026;28;20576;-55
2022/04/06 11:52:16;;;;;;;2.97;1.05;;;12.10;99.90;;;;;;5027257;28;20021;-54
2022/04/06 11:54:50;;;;;;;3.00;0.90;;;12.10;99.90;;;;;;5028056;28;20021;-56
2022/04/06 11:57:15;;;;;;;4.40;0.90;;;12.20;99.90;;;;;;5027568;28;20021;-58
2022/04/06 11:59:51;;;;;;;4.43;0.80;;;12.20;99.90;;;;;;5030087;28;20025;-52
2022/04/06 12:02:17;;;;;;;2.15;0.80;;;12.20;99.90;;;;;;5032281;28;20439;-52
2022/04/06 12:04:43;;;;;;;2.28;0.80;;;12.30;99.90;;;;;;5022336;28;20042;-53
2022/04/06 12:07:19;;;;;;;3.25;1.02;;;12.30;99.90;;;;;;5028539;28;20025;-55
2022/04/06 12:09:45;;;;;;;1.17;0.70;;;12.30;99.90;;;;;;5028663;28;20436;-53
2022/04/06 12:12:11;;;;;;;3.97;0.90;;;12.20;99.90;;;;;;5035118;28;20021;-56
2022/04/06 12:14:36;;;;;;;6.30;1.10;;;12.30;99.90;;;;;;5031689;28;20022;-59
2022/04/06 12:17:02;;;;;;;2.38;0.77;;;12.30;99.90;;;;;;5029483;28;20582;-57
2022/04/06 12:19:31;;;;;;;4.05;1.10;;;12.40;99.90;;;;;;5027507;28;20068;-59
2022/04/06 12:22:07;;;;;;;4.03;0.90;;;12.40;99.90;;;;;;5032594;28;20036;-59
2022/04/06 12:24:40;;;;;;;4.97;1.00;;;12.40;99.90;;;;;;5033086;28;20034;-53
2022/04/06 12:27:06;;;;;;;5.57;0.73;;;12.40;99.90;;;;;;5036120;28;20519;-58
2022/04/06 12:29:33;;;;;;;6.72;0.98;;;12.30;99.90;;;;;;5028511;28;20036;-57
2022/04/06 12:32:00;;;;;;;2.45;0.90;;;12.30;99.90;;;;;;5030201;28;20045;-56
2022/04/06 12:34:30;;;;;;;5.13;1.00;;;12.40;99.90;;;;;;5032048;28;20041;-55
2022/04/06 12:36:56;;;;;;;6.15;1.88;;;12.50;99.90;;;;;;5037383;28;20025;-55
2022/04/06 12:39:22;;;;;;;4.28;0.93;;;12.40;99.90;;;;;;5034819;28;20064;-55
2022/04/06 12:41:53;;;;;;;1.92;0.98;;;12.50;99.90;;;;;;5032743;28;20116;-56
2022/04/06 12:44:19;;;;;;;4.65;1.02;;;12.50;99.90;;;;;;5032293;28;20034;-55
2022/04/06 12:46:47;;;;;;;2.72;1.20;;;12.50;99.90;;;;;;5038309;28;20092;-53
2022/04/06 12:49:35;;;;;;;4.57;1.25;;;12.50;99.90;;;;;;5035105;28;20104;-56
2022/04/06 12:52:20;;;;;;;4.63;1.05;;;12.40;99.90;;;;;;5032370;28;20135;-55
2022/04/06 12:55:03;;;;;;;2.38;1.25;;;12.40;99.90;;;;;;5032098;28;20047;-54
2022/04/06 12:57:34;;;;;;;1.67;1.23;;;12.40;99.90;;;;;;5032833;28;20140;-54
2022/04/06 13:00:20;;;;;;;3.75;1.10;;;12.40;99.90;;;;;;5032195;28;20037;-51
2022/04/06 13:02:45;;;;;;;4.32;1.30;;;12.40;99.90;;;;;;5031291;28;20028;-52
2022/04/06 13:05:13;;;;;;;5.82;1.10;;;12.30;99.90;;;;;;5031308;28;20074;-55
2022/04/06 13:07:43;;;;;;;4.25;1.10;;;12.30;99.90;;;;;;5031968;28;20026;-56
2022/04/06 13:10:15;;;;;;;4.78;1.40;;;12.30;99.90;;;;;;5028547;28;20032;-57
2022/04/06 13:12:45;;;;;;;7.97;1.35;;;12.40;99.90;;;;;;5025245;28;20124;-56